Artie, WV (25008)

11:14 PM EDT on July 28, 2016 (GMT -0400)
Fairdale | | Change Station

Elev 1938 ft 37.74 °N, 81.35 °W | Updated 1 second ago

Overcast
Overcast
69.4 °F
Feels Like 69.4 °F
N
0.0
Wind Variable Wind from SW
Gusts 0.0 mph

Today
High -- | Low -- °F
--% Chance of Precip.
Yesterday
High -- | Low -- °F
Precip. -- in
Pressure 30.00 in
Visibility 10.0 miles
Clouds Scattered Clouds 600 ft
Mostly Cloudy 1300 ft
Overcast 2000 ft
Dew Point 67 °F
Humidity 92%
Rainfall in
Snow Depth Not available.
6:25 AM 8:37 PM
Waning Crescent, 26% visible
SPECI KBKW 290304Z AUTO 30004KT 10SM SCT006 BKN013 OVC020 20/19 A3000 RMK AO2 T02000189
Pressure 30.00 in
Visibility 10.0 miles
Clouds Scattered Clouds 600 ft
Mostly Cloudy 1300 ft
Overcast 2000 ft
Dew Point 67 °F
Humidity 92%
Rainfall in
Snow Depth Not available.
6:25 AM 8:37 PM
Waning Crescent, 26% visible
SPECI KBKW 290304Z AUTO 30004KT 10SM SCT006 BKN013 OVC020 20/19 A3000 RMK AO2 T02000189

10-Day Weather Forecast

Almanac

Astronomy

Jul. 28, 2016 Rise Set
Actual Time
Civil Twilight
Nautical Twilight
Astronomical Twilight
Moon
Length of Visible Light
Length of Day
Tomorrow will be .
, % of the Moon is Illuminated

Today's Extremes

State Highs State Lows

Community

WunderPhotos

Upload Photos

1,928,282 photos uploaded!

WunderBlog® & News

Nearby

Air Quality

  Air Quality AQ Index Pollutant
Not available.

Snow Depth

Station Depth Elevation

Earthquake Activity

City Distance Mag. Time & Date
Minimum magnitude displayed is 2.5.

Coastal Water Temperatures

Place Temperature

Stations

Nearby Weather Stations

Station Location Temp. Windchill Dew Point Humidity Wind Precip. Elev Updated Type
                   

Watches & Warnings

There are currently no watches in effect.